Time;durP1;ratioP1;P1;durP2;ratioP2;P2;SDS_P1;SDS_P2;PMS_P1;PMS_P2;Temp;Humidity;BMP_temperature;BMP_pressure;BME280_temperature;BME280_humidity;BME280_pressure;Samples;Min_cycle;Max_cycle;Signal;HPM_P1;HPM_P2
2023/07/11 00:01:10;;;;;;;2.78;2.40;;;;;;;;;;5077583;28;20226;-71
2023/07/11 00:03:37;;;;;;;2.58;2.38;;;;;;;;;;5079942;28;20218;-71
2023/07/11 00:06:07;;;;;;;2.50;2.17;;;;;;;;;;5079910;28;20226;-71
2023/07/11 00:08:36;;;;;;;2.80;2.60;;;;;;;;;;5077803;28;20230;-71
2023/07/11 00:11:03;;;;;;;2.50;2.30;;;;;;;;;;5076288;28;20256;-71
2023/07/11 00:13:32;;;;;;;2.55;2.35;;;;;;;;;;5071017;28;20221;-71
2023/07/11 00:16:02;;;;;;;3.08;2.30;;;;;;;;;;5076493;28;20205;-71
2023/07/11 00:18:30;;;;;;;2.92;2.65;;;;;;;;;;5077410;28;20195;-71
2023/07/11 00:20:57;;;;;;;2.80;2.33;;;;;;;;;;5077775;28;20234;-71
2023/07/11 00:23:26;;;;;;;2.60;2.40;;;;;;;;;;5075011;28;20207;-71
2023/07/11 00:25:53;;;;;;;3.70;2.50;;;;;;;;;;5078219;28;20201;-71
2023/07/11 00:28:20;;;;;;;2.70;2.50;;;;;;;;;;5079509;28;20202;-71
2023/07/11 00:30:48;;;;;;;2.35;2.15;;;;;;;;;;5075406;28;20195;-71
2023/07/11 00:33:15;;;;;;;2.95;2.65;;;;;;;;;;5070884;28;20211;-71
2023/07/11 00:35:45;;;;;;;2.60;2.40;;;;;;;;;;5076909;28;20202;-71
2023/07/11 00:38:12;;;;;;;4.22;2.38;;;;;;;;;;5076498;28;20216;-71
2023/07/11 00:40:42;;;;;;;2.60;2.40;;;;;;;;;;5078550;28;20215;-71
2023/07/11 00:43:11;;;;;;;3.45;2.40;;;;;;;;;;5080149;28;20229;-71
2023/07/11 00:46:08;;;;;;;3.90;2.58;;;;;;;;;;5075175;28;20202;-71
2023/07/11 00:48:36;;;;;;;3.28;2.70;;;;;;;;;;5032861;28;20219;-71
2023/07/11 00:51:03;;;;;;;3.08;2.67;;;;;;;;;;5067756;28;20203;-71
2023/07/11 00:53:31;;;;;;;3.08;2.50;;;;;;;;;;5078816;28;20266;-71
2023/07/11 00:56:02;;;;;;;2.72;2.53;;;;;;;;;;5076351;28;20209;-71
2023/07/11 00:58:30;;;;;;;2.58;2.38;;;;;;;;;;5075378;28;20284;-71
2023/07/11 01:00:57;;;;;;;2.50;2.30;;;;;;;;;;5079265;28;20230;-70
2023/07/11 01:03:24;;;;;;;2.50;2.30;;;;;;;;;;5069916;28;20214;-71
2023/07/11 01:05:52;;;;;;;4.07;2.50;;;;;;;;;;5074317;28;20252;-70
2023/07/11 01:08:19;;;;;;;2.78;2.40;;;;;;;;;;5075101;28;20246;-71
2023/07/11 01:10:46;;;;;;;2.78;2.58;;;;;;;;;;5078928;28;20217;-71
2023/07/11 01:13:14;;;;;;;3.05;2.40;;;;;;;;;;5073919;28;20210;-71
2023/07/11 01:15:42;;;;;;;3.38;2.85;;;;;;;;;;5073821;28;20202;-71
2023/07/11 01:18:09;;;;;;;2.80;2.60;;;;;;;;;;5070260;28;20214;-70
2023/07/11 01:20:36;;;;;;;2.33;2.15;;;;;;;;;;5073572;28;20223;-71
2023/07/11 01:23:05;;;;;;;3.05;2.75;;;;;;;;;;5076734;28;20208;-71
2023/07/11 01:25:32;;;;;;;3.30;3.00;;;;;;;;;;5082320;28;20204;-71
2023/07/11 01:27:59;;;;;;;2.83;2.63;;;;;;;;;;5078368;28;20221;-71
2023/07/11 01:30:26;;;;;;;3.63;2.80;;;;;;;;;;5073646;28;20206;-71
2023/07/11 01:32:53;;;;;;;3.55;2.70;;;;;;;;;;5075299;28;20209;-70
2023/07/11 01:35:20;;;;;;;2.88;2.60;;;;;;;;;;5076585;28;20206;-70
2023/07/11 01:37:48;;;;;;;2.72;2.40;;;;;;;;;;5071237;28;20213;-71
2023/07/11 01:40:17;;;;;;;2.70;2.50;;;;;;;;;;5074886;28;20232;-71
2023/07/11 01:42:44;;;;;;;2.92;2.30;;;;;;;;;;5079119;28;20217;-70
2023/07/11 01:45:12;;;;;;;3.83;2.40;;;;;;;;;;5078948;28;20203;-71
2023/07/11 01:47:39;;;;;;;3.03;2.60;;;;;;;;;;5083611;28;20202;-70
2023/07/11 01:50:07;;;;;;;2.80;2.55;;;;;;;;;;5082888;28;20202;-70
2023/07/11 01:52:34;;;;;;;2.78;2.55;;;;;;;;;;5076912;28;20203;-70
2023/07/11 01:55:01;;;;;;;2.65;2.45;;;;;;;;;;5074609;28;20218;-71
2023/07/11 01:57:30;;;;;;;3.08;2.78;;;;;;;;;;5072931;28;20217;-71
2023/07/11 01:59:57;;;;;;;4.90;2.90;;;;;;;;;;5070474;28;20194;-71
2023/07/11 02:02:24;;;;;;;2.85;2.65;;;;;;;;;;5073457;28;20201;-70
2023/07/11 02:04:51;;;;;;;3.20;2.90;;;;;;;;;;5073184;28;20218;-70
2023/07/11 02:07:19;;;;;;;3.88;2.90;;;;;;;;;;5077106;28;20205;-70
2023/07/11 02:09:46;;;;;;;3.13;2.67;;;;;;;;;;5072378;28;20209;-70
2023/07/11 02:12:14;;;;;;;3.22;2.50;;;;;;;;;;5075039;28;20203;-70
2023/07/11 02:14:42;;;;;;;3.58;2.97;;;;;;;;;;5072848;28;20198;-69
2023/07/11 02:17:10;;;;;;;3.60;2.88;;;;;;;;;;5073064;28;20250;-69
2023/07/11 02:19:37;;;;;;;2.67;2.47;;;;;;;;;;5074142;28;20202;-69
2023/07/11 02:22:04;;;;;;;2.95;2.50;;;;;;;;;;5077099;28;20226;-70
2023/07/11 02:24:31;;;;;;;3.10;2.80;;;;;;;;;;5075405;28;20205;-69
2023/07/11 02:26:59;;;;;;;3.03;2.72;;;;;;;;;;5076784;28;20213;-69
2023/07/11 02:29:26;;;;;;;3.92;2.90;;;;;;;;;;5072885;28;20203;-70
2023/07/11 02:31:54;;;;;;;6.05;2.60;;;;;;;;;;5072171;28;20199;-69
2023/07/11 02:34:21;;;;;;;3.90;2.95;;;;;;;;;;5073887;28;20284;-69
2023/07/11 02:36:49;;;;;;;2.60;2.40;;;;;;;;;;5072029;28;20202;-69
2023/07/11 02:39:16;;;;;;;2.95;2.67;;;;;;;;;;5074123;28;20202;-70
2023/07/11 02:41:43;;;;;;;3.17;2.78;;;;;;;;;;5079048;28;20319;-69
2023/07/11 02:44:11;;;;;;;3.63;2.80;;;;;;;;;;5074675;28;20207;-69
2023/07/11 02:46:38;;;;;;;3.33;3.03;;;;;;;;;;5078522;28;20222;-70
2023/07/11 02:49:08;;;;;;;3.47;2.83;;;;;;;;;;5073459;28;20246;-69
2023/07/11 02:51:36;;;;;;;3.08;2.72;;;;;;;;;;5077166;28;20281;-69
2023/07/11 02:54:03;;;;;;;3.15;2.85;;;;;;;;;;5077057;28;20199;-69
2023/07/11 02:56:29;;;;;;;2.67;2.47;;;;;;;;;;5077608;28;20203;-69
2023/07/11 02:59:00;;;;;;;2.63;2.35;;;;;;;;;;5074947;28;20191;-69
2023/07/11 03:01:27;;;;;;;3.17;2.88;;;;;;;;;;5076094;28;20229;-69
2023/07/11 03:03:54;;;;;;;2.90;2.60;;;;;;;;;;5076004;28;20285;-69
2023/07/11 03:06:23;;;;;;;3.38;2.60;;;;;;;;;;5078049;28;20209;-69
2023/07/11 03:08:50;;;;;;;3.45;2.70;;;;;;;;;;5036109;28;1080045;-69
2023/07/11 03:11:17;;;;;;;2.88;2.67;;;;;;;;;;5075557;28;20218;-69
2023/07/11 03:13:44;;;;;;;3.65;2.75;;;;;;;;;;5069329;28;20206;-69
2023/07/11 03:16:12;;;;;;;3.03;2.72;;;;;;;;;;5071363;28;20237;-69
2023/07/11 03:18:39;;;;;;;2.90;2.60;;;;;;;;;;5074104;28;20210;-69
2023/07/11 03:21:06;;;;;;;3.30;3.00;;;;;;;;;;5076918;28;20228;-69
2023/07/11 03:23:34;;;;;;;2.72;2.53;;;;;;;;;;5074855;28;20195;-69
2023/07/11 03:26:02;;;;;;;3.15;2.85;;;;;;;;;;5073546;28;20207;-69
2023/07/11 03:28:29;;;;;;;4.95;3.10;;;;;;;;;;5076306;28;20205;-69
2023/07/11 03:30:56;;;;;;;3.00;2.80;;;;;;;;;;5080322;28;20203;-69
2023/07/11 03:33:23;;;;;;;3.05;2.40;;;;;;;;;;5080958;28;20211;-69
2023/07/11 03:35:51;;;;;;;2.72;2.53;;;;;;;;;;5078866;28;20198;-69
2023/07/11 03:38:18;;;;;;;2.92;2.63;;;;;;;;;;5080001;28;20199;-69
2023/07/11 03:40:47;;;;;;;3.58;2.70;;;;;;;;;;5076945;28;20244;-69
2023/07/11 03:43:14;;;;;;;4.15;2.90;;;;;;;;;;5073620;28;20229;-69
2023/07/11 03:45:42;;;;;;;3.10;2.75;;;;;;;;;;5078795;28;20203;-69
2023/07/11 03:48:09;;;;;;;3.53;2.95;;;;;;;;;;5075945;28;20207;-69
2023/07/11 03:50:36;;;;;;;3.05;2.78;;;;;;;;;;5076607;28;20206;-69
2023/07/11 03:53:03;;;;;;;4.25;2.67;;;;;;;;;;5077728;28;20212;-69
2023/07/11 03:55:31;;;;;;;2.95;2.75;;;;;;;;;;5077799;28;20202;-69
2023/07/11 03:57:59;;;;;;;4.95;2.60;;;;;;;;;;5079050;28;20218;-69
2023/07/11 04:00:26;;;;;;;4.20;3.22;;;;;;;;;;5072476;28;20206;-69
2023/07/11 04:02:53;;;;;;;3.25;2.80;;;;;;;;;;5078504;28;20226;-69
2023/07/11 04:05:21;;;;;;;2.80;2.60;;;;;;;;;;5079765;28;20198;-69
2023/07/11 04:07:48;;;;;;;3.10;2.80;;;;;;;;;;5076499;28;20234;-69
2023/07/11 04:10:15;;;;;;;2.90;2.70;;;;;;;;;;5078685;28;20205;-69
2023/07/11 04:12:42;;;;;;;3.45;3.13;;;;;;;;;;5077843;28;20210;-69
2023/07/11 04:15:12;;;;;;;5.00;2.60;;;;;;;;;;5077668;28;20199;-69
2023/07/11 04:17:39;;;;;;;3.35;2.80;;;;;;;;;;5077730;28;20264;-69
2023/07/11 04:20:07;;;;;;;3.20;2.92;;;;;;;;;;5077724;28;20257;-69
2023/07/11 04:22:34;;;;;;;3.00;2.80;;;;;;;;;;5074314;28;20225;-69
2023/07/11 04:25:02;;;;;;;3.15;2.90;;;;;;;;;;5070719;28;20194;-69
2023/07/11 04:27:29;;;;;;;3.70;2.80;;;;;;;;;;5078330;28;20211;-69
2023/07/11 04:29:56;;;;;;;3.15;2.72;;;;;;;;;;5080553;28;20203;-69
2023/07/11 04:32:25;;;;;;;3.67;3.10;;;;;;;;;;5071027;28;20198;-69
2023/07/11 04:34:52;;;;;;;4.80;3.20;;;;;;;;;;5077510;28;20202;-69
2023/07/11 04:37:19;;;;;;;3.30;3.00;;;;;;;;;;5079848;28;20203;-70
2023/07/11 04:39:46;;;;;;;2.80;2.60;;;;;;;;;;5072945;28;20203;-70
2023/07/11 04:42:13;;;;;;;3.42;2.95;;;;;;;;;;5070520;28;20243;-70
2023/07/11 04:44:40;;;;;;;3.00;2.70;;;;;;;;;;5077635;28;20202;-70
2023/07/11 04:47:08;;;;;;;5.20;3.10;;;;;;;;;;5079883;28;20202;-70
2023/07/11 04:49:36;;;;;;;3.13;2.83;;;;;;;;;;5070520;28;20202;-70
2023/07/11 04:52:04;;;;;;;3.00;2.80;;;;;;;;;;5073817;28;20209;-70
2023/07/11 04:54:32;;;;;;;3.50;2.83;;;;;;;;;;5072996;28;20246;-70
2023/07/11 04:57:00;;;;;;;4.47;3.22;;;;;;;;;;5077105;28;20210;-70
2023/07/11 04:59:28;;;;;;;5.05;3.00;;;;;;;;;;5072545;28;20206;-70
2023/07/11 05:01:56;;;;;;;3.67;3.28;;;;;;;;;;5076111;28;20221;-70
2023/07/11 05:04:23;;;;;;;3.50;3.20;;;;;;;;;;5072407;28;20203;-70
2023/07/11 05:06:53;;;;;;;4.05;3.00;;;;;;;;;;5071858;28;20229;-70
2023/07/11 05:09:20;;;;;;;4.03;3.00;;;;;;;;;;5074144;28;20242;-69
2023/07/11 05:11:47;;;;;;;3.45;3.03;;;;;;;;;;5075556;28;20272;-70
2023/07/11 05:14:15;;;;;;;2.90;2.70;;;;;;;;;;5071187;28;20310;-70
2023/07/11 05:16:42;;;;;;;5.07;2.97;;;;;;;;;;5072025;28;20213;-70
2023/07/11 05:19:10;;;;;;;2.80;2.55;;;;;;;;;;5073857;28;20210;-70
2023/07/11 05:21:37;;;;;;;3.08;2.80;;;;;;;;;;5076415;28;20226;-70
2023/07/11 05:24:07;;;;;;;3.42;3.10;;;;;;;;;;5080434;28;20207;-71
2023/07/11 05:26:34;;;;;;;4.00;2.70;;;;;;;;;;5073628;28;20217;-71
2023/07/11 05:29:02;;;;;;;4.00;3.15;;;;;;;;;;5077355;28;20207;-71
2023/07/11 05:31:29;;;;;;;3.70;2.83;;;;;;;;;;5073842;28;20203;-69
2023/07/11 05:33:57;;;;;;;3.40;2.80;;;;;;;;;;5066746;28;20207;-71
2023/07/11 05:36:31;;;;;;;4.45;2.92;;;;;;;;;;5072842;28;20316;-71
2023/07/11 05:38:59;;;;;;;3.78;3.20;;;;;;;;;;5072736;28;20263;-71
2023/07/11 05:41:28;;;;;;;3.33;3.03;;;;;;;;;;5077115;28;20267;-71
2023/07/11 05:43:56;;;;;;;3.42;3.13;;;;;;;;;;5069508;28;20203;-71
2023/07/11 05:46:24;;;;;;;4.10;2.92;;;;;;;;;;5072134;28;20233;-71
2023/07/11 05:48:51;;;;;;;3.40;2.97;;;;;;;;;;5070866;28;20257;-72
2023/07/11 05:51:19;;;;;;;3.45;2.75;;;;;;;;;;5075259;28;20252;-72
2023/07/11 05:53:48;;;;;;;4.20;3.00;;;;;;;;;;5075193;28;20199;-72
2023/07/11 05:56:15;;;;;;;3.63;3.30;;;;;;;;;;5081892;28;20210;-72
2023/07/11 05:58:44;;;;;;;3.60;2.65;;;;;;;;;;5090072;28;20241;-72
2023/07/11 06:01:12;;;;;;;4.35;3.05;;;;;;;;;;5075937;28;20206;-72
2023/07/11 06:03:41;;;;;;;5.10;3.08;;;;;;;;;;5067374;28;20206;-73
2023/07/11 06:06:09;;;;;;;4.13;3.25;;;;;;;;;;5067822;28;20248;-73
2023/07/11 06:08:37;;;;;;;3.97;2.95;;;;;;;;;;5069313;28;20231;-73
2023/07/11 06:11:05;;;;;;;3.08;2.70;;;;;;;;;;5080110;28;20221;-73
2023/07/11 06:13:33;;;;;;;3.35;2.70;;;;;;;;;;5072757;28;20198;-73
2023/07/11 06:16:02;;;;;;;3.33;2.85;;;;;;;;;;5079677;28;20206;-74
2023/07/11 06:18:32;;;;;;;3.40;3.10;;;;;;;;;;5073623;28;20226;-74
2023/07/11 06:20:59;;;;;;;3.30;3.00;;;;;;;;;;5071949;28;20222;-74
2023/07/11 06:23:26;;;;;;;2.70;2.50;;;;;;;;;;5074598;28;20213;-74
2023/07/11 06:25:53;;;;;;;3.25;2.92;;;;;;;;;;5074377;28;20198;-74
2023/07/11 06:28:20;;;;;;;4.22;3.08;;;;;;;;;;5073302;28;20195;-74
2023/07/11 06:30:48;;;;;;;2.78;2.58;;;;;;;;;;5071530;28;20202;-75
2023/07/11 06:33:18;;;;;;;2.75;2.53;;;;;;;;;;5077800;28;20194;-74
2023/07/11 06:35:48;;;;;;;3.78;2.83;;;;;;;;;;5080321;28;20206;-75
2023/07/11 06:38:15;;;;;;;6.28;3.33;;;;;;;;;;5073538;28;20303;-75
2023/07/11 06:40:47;;;;;;;3.83;3.03;;;;;;;;;;5078721;28;20203;-75
2023/07/11 06:43:14;;;;;;;5.82;3.10;;;;;;;;;;5070526;28;20240;-75
2023/07/11 06:45:42;;;;;;;4.65;2.88;;;;;;;;;;5076533;28;20202;-74
2023/07/11 06:48:09;;;;;;;3.53;2.85;;;;;;;;;;5075369;28;20209;-75
2023/07/11 06:50:37;;;;;;;2.90;2.60;;;;;;;;;;5074692;28;20202;-74
2023/07/11 06:53:04;;;;;;;3.95;2.80;;;;;;;;;;5075396;28;20203;-75
2023/07/11 06:55:32;;;;;;;3.75;3.17;;;;;;;;;;5077215;28;20202;-75
2023/07/11 06:57:59;;;;;;;3.28;2.70;;;;;;;;;;5070970;28;20210;-75
2023/07/11 07:00:26;;;;;;;3.50;2.90;;;;;;;;;;5079012;28;20221;-75
2023/07/11 07:02:54;;;;;;;3.35;2.88;;;;;;;;;;5072671;28;20227;-75
2023/07/11 07:05:21;;;;;;;3.35;2.75;;;;;;;;;;5076104;28;20225;-75
2023/07/11 07:07:49;;;;;;;4.13;2.83;;;;;;;;;;5078992;28;20236;-75
2023/07/11 07:10:16;;;;;;;4.30;2.83;;;;;;;;;;5082296;28;20218;-75
2023/07/11 07:12:43;;;;;;;3.63;2.80;;;;;;;;;;5082485;28;20195;-76
2023/07/11 07:15:11;;;;;;;3.22;2.83;;;;;;;;;;5080638;28;20210;-75
2023/07/11 07:17:38;;;;;;;4.35;3.03;;;;;;;;;;5079347;28;20206;-76
2023/07/11 07:20:06;;;;;;;3.88;2.72;;;;;;;;;;5081849;28;20217;-75
2023/07/11 07:22:33;;;;;;;5.07;2.88;;;;;;;;;;5088640;28;20222;-76
2023/07/11 07:25:01;;;;;;;2.92;2.58;;;;;;;;;;5078879;28;20217;-76
2023/07/11 07:27:29;;;;;;;3.85;2.58;;;;;;;;;;5075618;28;20199;-76
2023/07/11 07:29:56;;;;;;;4.45;2.63;;;;;;;;;;5077598;28;20206;-76
2023/07/11 07:32:23;;;;;;;2.70;2.50;;;;;;;;;;5084155;28;20203;-76
2023/07/11 07:34:50;;;;;;;3.10;2.70;;;;;;;;;;5078627;28;20207;-75
2023/07/11 07:37:17;;;;;;;4.53;2.90;;;;;;;;;;5070509;28;20213;-75
2023/07/11 07:39:45;;;;;;;3.22;2.40;;;;;;;;;;5072113;28;20206;-75
2023/07/11 07:42:15;;;;;;;3.60;2.70;;;;;;;;;;5075484;28;20280;-75
2023/07/11 07:44:42;;;;;;;4.20;3.03;;;;;;;;;;5078484;28;20301;-74
2023/07/11 07:47:09;;;;;;;2.83;2.63;;;;;;;;;;5076673;28;20199;-76
2023/07/11 07:49:37;;;;;;;4.47;2.97;;;;;;;;;;5080989;28;20198;-76
2023/07/11 07:52:04;;;;;;;3.92;2.75;;;;;;;;;;5073443;28;20199;-74
2023/07/11 07:54:31;;;;;;;4.95;2.80;;;;;;;;;;5071302;28;20217;-76
2023/07/11 07:56:59;;;;;;;4.38;3.00;;;;;;;;;;5067186;28;20202;-77
2023/07/11 07:59:27;;;;;;;5.07;2.90;;;;;;;;;;5075269;28;20206;-78
2023/07/11 08:01:55;;;;;;;3.78;2.40;;;;;;;;;;5077246;28;20210;-76
2023/07/11 08:04:22;;;;;;;3.33;2.70;;;;;;;;;;5071834;28;20210;-77
2023/07/11 08:06:49;;;;;;;3.60;2.75;;;;;;;;;;5080469;28;20203;-77
2023/07/11 08:09:17;;;;;;;3.55;2.55;;;;;;;;;;5080967;28;20290;-76
2023/07/11 08:11:45;;;;;;;3.25;2.60;;;;;;;;;;5076257;28;20226;-76
2023/07/11 08:14:12;;;;;;;4.15;2.80;;;;;;;;;;5083994;28;20213;-75
2023/07/11 08:16:41;;;;;;;20.13;4.65;;;;;;;;;;5075258;28;20207;-76
2023/07/11 08:19:08;;;;;;;9.00;3.03;;;;;;;;;;5074578;28;20292;-78
2023/07/11 08:21:36;;;;;;;8.40;2.95;;;;;;;;;;5080312;28;20261;-76
2023/07/11 08:24:06;;;;;;;4.93;2.50;;;;;;;;;;5083193;28;20281;-76
2023/07/11 08:26:34;;;;;;;4.63;2.70;;;;;;;;;;5086024;28;20206;-76
2023/07/11 08:29:01;;;;;;;4.53;2.47;;;;;;;;;;5079937;28;20210;-77
2023/07/11 08:31:28;;;;;;;3.70;2.63;;;;;;;;;;5077777;28;20256;-77
2023/07/11 08:33:57;;;;;;;3.80;2.85;;;;;;;;;;5080587;28;20194;-77
2023/07/11 08:36:24;;;;;;;4.80;2.80;;;;;;;;;;5075280;28;20198;-77
2023/07/11 08:38:52;;;;;;;3.70;2.90;;;;;;;;;;5081287;28;20202;-77
2023/07/11 08:41:25;;;;;;;3.13;2.83;;;;;;;;;;5083464;28;20198;-77
2023/07/11 08:43:54;;;;;;;3.47;2.55;;;;;;;;;;5079874;28;20218;-75
2023/07/11 08:46:22;;;;;;;5.75;2.60;;;;;;;;;;5079991;28;20200;-76
2023/07/11 08:48:51;;;;;;;5.55;2.70;;;;;;;;;;5085433;28;20199;-75
2023/07/11 08:51:24;;;;;;;4.05;2.75;;;;;;;;;;5078747;28;20209;-77
2023/07/11 08:53:55;;;;;;;6.63;2.97;;;;;;;;;;5078832;28;20194;-76
2023/07/11 08:56:24;;;;;;;7.47;2.65;;;;;;;;;;5080407;28;20241;-75
2023/07/11 08:58:53;;;;;;;5.32;3.00;;;;;;;;;;5082023;28;20218;-76
2023/07/11 09:01:31;;;;;;;3.15;2.70;;;;;;;;;;5078034;28;20241;-75
2023/07/11 09:04:00;;;;;;;6.95;3.00;;;;;;;;;;5081678;28;20227;-75
2023/07/11 09:06:32;;;;;;;2.70;2.47;;;;;;;;;;5078664;28;20206;-78
2023/07/11 09:09:01;;;;;;;5.03;3.05;;;;;;;;;;5080068;28;20238;-77
2023/07/11 09:11:34;;;;;;;4.15;2.80;;;;;;;;;;5092099;28;20201;-76
2023/07/11 09:14:07;;;;;;;3.22;2.90;;;;;;;;;;5077803;28;20203;-76
2023/07/11 09:16:36;;;;;;;4.00;2.92;;;;;;;;;;5071234;28;20202;-80
2023/07/11 09:19:21;;;;;;;4.10;3.10;;;;;;;;;;5081083;28;20207;-79
2023/07/11 09:21:54;;;;;;;3.83;3.05;;;;;;;;;;5076287;28;20289;-76
2023/07/11 09:24:30;;;;;;;2.90;2.65;;;;;;;;;;5074472;28;20218;-77
2023/07/11 09:27:00;;;;;;;3.92;3.15;;;;;;;;;;5077685;28;20225;-80
2023/07/11 09:29:29;;;;;;;5.90;3.17;;;;;;;;;;5068922;28;20213;-80
2023/07/11 09:31:59;;;;;;;5.43;3.38;;;;;;;;;;5074271;28;20244;-77
2023/07/11 09:34:28;;;;;;;3.90;3.00;;;;;;;;;;5066624;28;20194;-80
2023/07/11 09:36:58;;;;;;;3.90;3.30;;;;;;;;;;5071441;28;20214;-78
2023/07/11 09:39:29;;;;;;;4.13;2.80;;;;;;;;;;5069359;28;20195;-77
2023/07/11 09:42:00;;;;;;;5.32;3.40;;;;;;;;;;5073319;28;20210;-76
2023/07/11 09:44:27;;;;;;;4.20;2.90;;;;;;;;;;5074069;28;20222;-78
2023/07/11 09:46:55;;;;;;;5.40;2.80;;;;;;;;;;5078772;28;20203;-78
2023/07/11 09:49:24;;;;;;;3.47;2.83;;;;;;;;;;5074222;28;20206;-76
2023/07/11 09:51:54;;;;;;;6.13;2.92;;;;;;;;;;5076046;28;20205;-77
2023/07/11 09:54:24;;;;;;;5.22;3.42;;;;;;;;;;5072284;28;20248;-77
2023/07/11 09:56:52;;;;;;;3.20;2.90;;;;;;;;;;5075307;28;20199;-76
2023/07/11 09:59:21;;;;;;;3.47;3.17;;;;;;;;;;5077481;28;20260;-77
2023/07/11 10:01:53;;;;;;;4.07;2.90;;;;;;;;;;5077395;28;20198;-77
2023/07/11 10:04:23;;;;;;;5.40;3.10;;;;;;;;;;5077160;28;20229;-76
2023/07/11 10:06:54;;;;;;;4.07;3.25;;;;;;;;;;5075026;28;20209;-76
2023/07/11 10:09:25;;;;;;;4.03;3.25;;;;;;;;;;5078760;28;20241;-76
2023/07/11 10:11:53;;;;;;;4.30;3.50;;;;;;;;;;5074043;28;20210;-76
2023/07/11 10:14:22;;;;;;;4.10;3.10;;;;;;;;;;5075632;28;20241;-81
2023/07/11 10:16:49;;;;;;;3.70;3.28;;;;;;;;;;5078618;28;20202;-77
2023/07/11 10:19:17;;;;;;;5.30;3.38;;;;;;;;;;5078238;28;20199;-79
2023/07/11 10:21:46;;;;;;;4.40;3.20;;;;;;;;;;5075680;28;20272;-77
2023/07/11 10:24:17;;;;;;;4.28;3.22;;;;;;;;;;5080113;28;20313;-81
2023/07/11 10:26:47;;;;;;;5.22;3.67;;;;;;;;;;5074378;28;20202;-79
2023/07/11 10:29:16;;;;;;;5.38;3.38;;;;;;;;;;5075021;28;20206;-77
2023/07/11 10:31:48;;;;;;;6.78;3.13;;;;;;;;;;5075019;28;20202;-79
2023/07/11 10:34:19;;;;;;;5.00;3.05;;;;;;;;;;5072404;28;20203;-77
2023/07/11 10:36:48;;;;;;;5.20;3.30;;;;;;;;;;5075974;28;20217;-78
2023/07/11 10:39:18;;;;;;;3.55;3.25;;;;;;;;;;5076430;28;20225;-76
2023/07/11 10:41:50;;;;;;;4.72;3.17;;;;;;;;;;5073197;28;20209;-77
2023/07/11 10:44:20;;;;;;;5.07;2.92;;;;;;;;;;5078761;28;20261;-76
2023/07/11 10:46:49;;;;;;;6.30;3.45;;;;;;;;;;5078926;28;20198;-65
2023/07/11 10:49:18;;;;;;;4.88;2.90;;;;;;;;;;5078641;28;20217;-65
2023/07/11 10:51:47;;;;;;;4.82;3.28;;;;;;;;;;5075131;28;20213;-67
2023/07/11 10:54:20;;;;;;;4.80;3.40;;;;;;;;;;5076971;28;20207;-66
2023/07/11 10:56:51;;;;;;;5.43;3.50;;;;;;;;;;5075662;28;20206;-67
2023/07/11 10:59:21;;;;;;;4.20;3.22;;;;;;;;;;5076089;28;20284;-67
2023/07/11 11:01:55;;;;;;;6.28;3.35;;;;;;;;;;5077003;28;20224;-68
2023/07/11 11:04:30;;;;;;;3.75;3.40;;;;;;;;;;5075907;28;20256;-66
2023/07/11 11:06:59;;;;;;;4.82;3.30;;;;;;;;;;5081619;28;20201;-65
2023/07/11 11:09:31;;;;;;;3.22;2.92;;;;;;;;;;5081523;28;20246;-66
2023/07/11 11:12:04;;;;;;;3.83;3.50;;;;;;;;;;5082416;28;20228;-65
2023/07/11 11:14:34;;;;;;;6.50;3.35;;;;;;;;;;5074105;28;20252;-64
2023/07/11 11:17:07;;;;;;;3.40;3.03;;;;;;;;;;5077494;28;20310;-65
2023/07/11 11:19:40;;;;;;;3.40;3.10;;;;;;;;;;5079317;28;20222;-68
2023/07/11 11:22:12;;;;;;;4.90;3.42;;;;;;;;;;5082803;28;20252;-69
2023/07/11 11:24:44;;;;;;;7.15;3.20;;;;;;;;;;5080614;28;20226;-66
2023/07/11 11:27:19;;;;;;;6.93;3.08;;;;;;;;;;5089774;28;20216;-65
2023/07/11 11:29:52;;;;;;;5.50;3.42;;;;;;;;;;5073436;28;20202;-65
2023/07/11 11:32:23;;;;;;;4.72;3.50;;;;;;;;;;5073590;28;20251;-65
2023/07/11 11:34:56;;;;;;;4.43;3.17;;;;;;;;;;5077144;28;20269;-66
2023/07/11 11:37:30;;;;;;;4.03;3.17;;;;;;;;;;5073632;28;20215;-65
2023/07/11 11:40:01;;;;;;;4.07;3.20;;;;;;;;;;5079824;28;20206;-66
2023/07/11 11:42:31;;;;;;;5.28;3.28;;;;;;;;;;5081218;28;20255;-65
2023/07/11 11:45:01;;;;;;;4.63;2.90;;;;;;;;;;5084066;28;20215;-67
2023/07/11 11:47:29;;;;;;;6.32;3.13;;;;;;;;;;5082220;28;20201;-65
2023/07/11 11:49:57;;;;;;;5.32;3.33;;;;;;;;;;5072988;28;20198;-64
2023/07/11 11:52:25;;;;;;;5.78;3.17;;;;;;;;;;5075544;28;20213;-64
2023/07/11 11:54:55;;;;;;;5.40;3.22;;;;;;;;;;5073614;28;20211;-64
2023/07/11 11:57:24;;;;;;;4.25;3.25;;;;;;;;;;5073873;28;20202;-64
2023/07/11 11:59:54;;;;;;;4.95;3.10;;;;;;;;;;5073103;28;20203;-66
2023/07/11 12:02:29;;;;;;;3.72;3.15;;;;;;;;;;5068602;28;20205;-69
2023/07/11 12:05:02;;;;;;;4.60;3.35;;;;;;;;;;5075320;28;20324;-68
2023/07/11 12:07:43;;;;;;;4.80;2.97;;;;;;;;;;5079080;28;20194;-70
2023/07/11 12:10:18;;;;;;;3.40;3.08;;;;;;;;;;5071373;28;20293;-67
2023/07/11 12:12:56;;;;;;;3.25;2.80;;;;;;;;;;5078245;28;20213;-67
2023/07/11 12:15:29;;;;;;;6.13;3.47;;;;;;;;;;5075371;28;20206;-66
2023/07/11 12:18:15;;;;;;;4.60;3.42;;;;;;;;;;5074385;28;20265;-71
2023/07/11 12:20:42;;;;;;;4.32;3.00;;;;;;;;;;5071830;28;20201;-69
2023/07/11 12:23:18;;;;;;;4.78;3.15;;;;;;;;;;5073778;28;20206;-68
2023/07/11 12:26:01;;;;;;;4.85;3.38;;;;;;;;;;5079410;28;20210;-64
2023/07/11 12:28:28;;;;;;;4.03;3.22;;;;;;;;;;5073638;28;20199;-62
2023/07/11 12:31:16;;;;;;;4.70;2.88;;;;;;;;;;5069305;28;20219;-64
2023/07/11 12:33:43;;;;;;;3.90;2.83;;;;;;;;;;5077839;28;20194;-63
2023/07/11 12:36:31;;;;;;;5.55;3.35;;;;;;;;;;5079912;28;20202;-63
2023/07/11 12:39:02;;;;;;;5.13;3.10;;;;;;;;;;5071405;28;20203;-65
2023/07/11 12:41:34;;;;;;;5.15;2.97;;;;;;;;;;5080746;28;20252;-64
2023/07/11 12:44:03;;;;;;;5.95;2.85;;;;;;;;;;5077199;28;20223;-64
2023/07/11 12:46:34;;;;;;;7.85;3.25;;;;;;;;;;5078880;28;20610;-64
2023/07/11 12:49:03;;;;;;;3.75;3.00;;;;;;;;;;5079101;28;20207;-64
2023/07/11 12:51:32;;;;;;;3.70;3.30;;;;;;;;;;5078104;28;20210;-63
2023/07/11 12:54:01;;;;;;;4.05;3.20;;;;;;;;;;5077096;28;20206;-64
2023/07/11 12:56:29;;;;;;;4.57;3.22;;;;;;;;;;5074043;28;20289;-64
2023/07/11 12:58:57;;;;;;;5.70;3.20;;;;;;;;;;5075337;28;20202;-63
2023/07/11 13:01:24;;;;;;;5.03;3.30;;;;;;;;;;5072958;28;20206;-65
2023/07/11 13:03:53;;;;;;;3.65;3.28;;;;;;;;;;5079149;28;20222;-65
2023/07/11 13:06:29;;;;;;;4.82;2.88;;;;;;;;;;5077055;28;20298;-64
2023/07/11 13:08:57;;;;;;;6.18;3.10;;;;;;;;;;5069003;28;20242;-65
2023/07/11 13:11:25;;;;;;;4.18;3.15;;;;;;;;;;5076830;28;20295;-64
2023/07/11 13:13:54;;;;;;;7.57;3.25;;;;;;;;;;5069626;28;20194;-64
2023/07/11 13:16:23;;;;;;;3.55;3.10;;;;;;;;;;5067760;28;20198;-65
2023/07/11 13:18:51;;;;;;;4.13;3.25;;;;;;;;;;5073726;28;20209;-64
2023/07/11 13:21:21;;;;;;;4.90;3.42;;;;;;;;;;5070229;28;20202;-64
2023/07/11 13:23:49;;;;;;;4.97;3.47;;;;;;;;;;5069155;28;20199;-64
2023/07/11 13:26:20;;;;;;;5.88;3.35;;;;;;;;;;5073614;28;20217;-64
2023/07/11 13:28:57;;;;;;;5.18;3.83;;;;;;;;;;5067808;28;20210;-64
2023/07/11 13:31:25;;;;;;;4.65;3.50;;;;;;;;;;5069947;28;20225;-64
2023/07/11 13:34:00;;;;;;;5.43;3.35;;;;;;;;;;5072335;28;20230;-64
2023/07/11 13:36:30;;;;;;;4.43;3.30;;;;;;;;;;5076356;28;20213;-63
2023/07/11 13:39:00;;;;;;;5.05;3.38;;;;;;;;;;5074686;28;20294;-64
2023/07/11 13:41:28;;;;;;;5.00;3.30;;;;;;;;;;5077249;28;20214;-65
2023/07/11 13:44:01;;;;;;;4.80;3.20;;;;;;;;;;5076108;28;20210;-65
2023/07/11 13:46:30;;;;;;;3.50;3.20;;;;;;;;;;5068279;28;20205;-64
2023/07/11 13:48:57;;;;;;;4.80;3.20;;;;;;;;;;5073295;28;20213;-67
2023/07/11 13:51:26;;;;;;;6.55;3.50;;;;;;;;;;5071315;28;20207;-64
2023/07/11 13:53:57;;;;;;;6.40;3.50;;;;;;;;;;5074340;28;20275;-66
2023/07/11 13:56:24;;;;;;;4.65;3.40;;;;;;;;;;5075572;28;20198;-63
2023/07/11 13:58:51;;;;;;;4.07;3.50;;;;;;;;;;5072741;28;20202;-65
2023/07/11 14:01:21;;;;;;;4.13;3.30;;;;;;;;;;5067323;28;20202;-67
2023/07/11 14:03:48;;;;;;;5.35;3.20;;;;;;;;;;5072076;28;20283;-67
2023/07/11 14:06:17;;;;;;;4.25;3.28;;;;;;;;;;5070234;28;20210;-66
2023/07/11 14:08:44;;;;;;;3.20;3.00;;;;;;;;;;5074734;28;20241;-66
2023/07/11 14:11:15;;;;;;;6.78;3.10;;;;;;;;;;5074910;28;20205;-65
2023/07/11 14:13:42;;;;;;;5.85;3.33;;;;;;;;;;5072311;28;20205;-64
2023/07/11 14:16:10;;;;;;;6.68;3.70;;;;;;;;;;5071009;28;20228;-67
2023/07/11 14:18:37;;;;;;;3.47;3.17;;;;;;;;;;5067285;28;20199;-67
2023/07/11 14:21:05;;;;;;;4.65;3.40;;;;;;;;;;5065727;28;20212;-66
2023/07/11 14:23:32;;;;;;;4.15;3.53;;;;;;;;;;5061001;28;20194;-66
2023/07/11 14:26:01;;;;;;;4.00;3.42;;;;;;;;;;5069496;28;20214;-66
2023/07/11 14:28:29;;;;;;;6.93;3.45;;;;;;;;;;5071315;28;20213;-66
2023/07/11 14:31:00;;;;;;;4.10;3.70;;;;;;;;;;5071805;28;20197;-66
2023/07/11 14:33:29;;;;;;;3.88;3.50;;;;;;;;;;5067333;28;20214;-63
2023/07/11 14:35:57;;;;;;;5.88;3.60;;;;;;;;;;5072740;28;20201;-64
2023/07/11 14:38:24;;;;;;;6.00;3.65;;;;;;;;;;5073754;28;20202;-66
2023/07/11 14:40:51;;;;;;;4.22;3.83;;;;;;;;;;5078500;28;20210;-65
2023/07/11 14:43:21;;;;;;;4.97;4.13;;;;;;;;;;5070906;28;20249;-67
2023/07/11 14:45:50;;;;;;;4.05;3.70;;;;;;;;;;5078838;28;20229;-65
2023/07/11 14:48:18;;;;;;;3.97;3.58;;;;;;;;;;5083523;28;20205;-66
2023/07/11 14:50:46;;;;;;;4.35;3.95;;;;;;;;;;5069363;28;20202;-66
2023/07/11 14:53:25;;;;;;;5.85;4.45;;;;;;;;;;5075154;28;20222;-64